WetterOnline ( https://www.wetteronline.ch )

Wetter aktuell Schwerin

Aktuelles Wetter: Schwerin (68m)

6-stündlich | Neueste Meldungen
Ortszeit Temperatur Wetter
So, 21.04. 14:00 19.6° C leicht bewölkt
So, 21.04. 8:00 8.3° C wolkenlos
So, 21.04. 2:00 5.8° C wolkenlos
Sa, 20.04. 20:00 13.8° C wolkenlos
Sa, 20.04. 14:00 17.7° C bedeckt
Sa, 20.04. 8:00 5.8° C leicht bewölkt
Sa, 20.04. 2:00 6.5° C wolkenlos
Fr, 19.04. 20:00 16.3° C wolkenlos
Ortszeit Temperatur Wetter
So, 21.04. 15:00 20.7° C fast wolkenlos
So, 21.04. 14:50 20.7° C fast wolkenlos
So, 21.04. 14:40 20.1° C leicht bewölkt
So, 21.04. 14:30 19.6° C wolkig
So, 21.04. 14:20 19.6° C wolkig
So, 21.04. 14:10 19.4° C wolkig
So, 21.04. 14:00 19.6° C leicht bewölkt
So, 21.04. 13:30 19.1° C fast wolkenlos
So, 21.04. 13:00 18.3° C wolkenlos
So, 21.04. 12:30 17.5° C wolkig
So, 21.04. 12:00 17.4° C wolkenlos
Ortszeit Relative Feuchte Sichtweite
So, 21.04. 14:00 29% 27 km
So, 21.04. 8:00 56% 30 km
So, 21.04. 2:00 75% 14 km
Sa, 20.04. 20:00 54% 27 km
Sa, 20.04. 14:00 34% 28 km
Sa, 20.04. 8:00 61% 30 km
Sa, 20.04. 2:00 68% 24 km
Fr, 19.04. 20:00 40% 26 km
Ortszeit Relative Feuchte Sichtweite
So, 21.04. 15:00 29% 45 km
So, 21.04. 14:50 29% -
So, 21.04. 14:40 26% -
So, 21.04. 14:30 28% 40 km
So, 21.04. 14:20 28% -
So, 21.04. 14:10 28% -
So, 21.04. 14:00 29% 27 km
So, 21.04. 13:30 29% 35 km
So, 21.04. 13:00 31% 30 km
So, 21.04. 12:30 29% 35 km
So, 21.04. 12:00 32% 35 km
Ortszeit Niederschlagsmenge Niederschlagsart
So, 21.04. 14:00 0.0 l/m2 in 6 Std. -
So, 21.04. 8:00 0.0 l/m2 in 12 Std. -
So, 21.04. 2:00 0.0 l/m2 in 6 Std. -
Sa, 20.04. 20:00 0.0 l/m2 in 12 Std. -
Sa, 20.04. 14:00 0.0 l/m2 in 6 Std. -
Sa, 20.04. 8:00 0.0 l/m2 in 12 Std. -
Sa, 20.04. 2:00 0.0 l/m2 in 6 Std. -
Fr, 19.04. 20:00 0.0 l/m2 in 12 Std. -
Ortszeit Niederschlagsmenge Niederschlagsart
So, 21.04. 15:00 0.0 l/m2 in 1 Std. -
So, 21.04. 14:50 keine Meldung -
So, 21.04. 14:40 keine Meldung -
So, 21.04. 14:30 0.0 l/m2 in 1 Std. -
So, 21.04. 14:20 keine Meldung -
So, 21.04. 14:10 keine Meldung -
So, 21.04. 14:00 0.0 l/m2 in 1 Std. -
So, 21.04. 13:30 0.0 l/m2 in 1 Std. -
So, 21.04. 13:00 0.0 l/m2 in 1 Std. -
So, 21.04. 12:30 0.0 l/m2 in 1 Std. -
So, 21.04. 12:00 0.0 l/m2 in 1 Std. -
Ortszeit Stärke Spitze Richtung
km/h Bft. km/h Grad Sektor
So, 21.04. 14:00 13 3 22 80° O
So, 21.04. 8:00 7 2 14 100° O
So, 21.04. 2:00 7 2 18 50° NO
Sa, 20.04. 20:00 7 2 26 10° N
Sa, 20.04. 14:00 13 3 28 60° NO
Sa, 20.04. 8:00 7 2 14 50° NO
Sa, 20.04. 2:00 7 2 22 70° O
Fr, 19.04. 20:00 13 3 35 70° O
Ortszeit Stärke Spitze Richtung
km/h Bft. km/h Grad Sektor
So, 21.04. 15:00 11 2 18 80° O
So, 21.04. 14:50 11 2 - 80° O
So, 21.04. 14:40 11 2 - 70° O
So, 21.04. 14:30 11 2 18 80° O
So, 21.04. 14:20 11 2 - 80° O
So, 21.04. 14:10 11 2 - 70° O
So, 21.04. 14:00 13 3 20 80° O
So, 21.04. 13:30 9 2 19 100° O
So, 21.04. 13:00 11 2 22 100° O
So, 21.04. 12:30 11 2 22 100° O
So, 21.04. 12:00 11 2 22 110° O
Ortszeit Untergrenze Bedeckung Gattung
total tief tief mittel hoch
So, 21.04. 14:00 9000 m 5/8 0/8 - - -
So, 21.04. 8:00 - 0/8 0/8 - - -
So, 21.04. 2:00 - 0/8 0/8 - - -
Sa, 20.04. 20:00 - 0/8 0/8 - - -
Sa, 20.04. 14:00 6600 m 8/8 8/8 - - -
Sa, 20.04. 8:00 9000 m 5/8 0/8 - - -
Sa, 20.04. 2:00 - 0/8 0/8 - - -
Fr, 19.04. 20:00 - 0/8 0/8 - - -
Ortszeit Bedeckungsgrad in Achtel und Wolkenuntergrenze
So, 21.04. 15:00 2(10500m)
So, 21.04. 14:50 2(10500m)
So, 21.04. 14:40 3(10500m)
So, 21.04. 14:30 8(10500m)
So, 21.04. 14:20 8(10500m)
So, 21.04. 14:10 7(10500m)
So, 21.04. 14:00 5(9000m)
So, 21.04. 13:30 1(9000m)
So, 21.04. 13:00 keine Wolken
So, 21.04. 12:30 7(10500m)
So, 21.04. 12:00 3(10500m)
Ortszeit Luftdruck NN (hPa) Tendenz (hPa in 3 Std.)
So, 21.04. 14:00 1023 - 2,1
So, 21.04. 8:00 1027 - 0,9
So, 21.04. 2:00 1029 - 1,0
Sa, 20.04. 20:00 1030 - 0,9
Sa, 20.04. 14:00 1032 - 1,4
Sa, 20.04. 8:00 1034 0,0
Sa, 20.04. 2:00 1034 - 0,3
Fr, 19.04. 20:00 1033 + 0,1
Ortszeit Luftdruck NN (hPa) Tendenz (hPa in 3 Std.)
So, 21.04. 15:00 1023 - 2,3
So, 21.04. 14:50 1023 keine Meldung
So, 21.04. 14:40 1023 keine Meldung
So, 21.04. 14:30 1023 - 2,2
So, 21.04. 14:20 1023 keine Meldung
So, 21.04. 14:10 1023 keine Meldung
So, 21.04. 14:00 1023 - 2,1
So, 21.04. 13:30 1024 - 2,1
So, 21.04. 13:00 1024 - 1,9
So, 21.04. 12:30 1025 - 1,6
So, 21.04. 12:00 1025 - 1,3
Ortszeit Schneehöhe (cm)
So, 21.04. 14:00 0
So, 21.04. 8:00 0
So, 21.04. 2:00 0
Sa, 20.04. 20:00 0
Sa, 20.04. 14:00 0
Sa, 20.04. 8:00 0
Sa, 20.04. 2:00 0
Fr, 19.04. 20:00 0
Ortszeit Schneehöhe (cm)
So, 21.04. 15:00 0
So, 21.04. 14:50 0
So, 21.04. 14:40 0
So, 21.04. 14:30 0
So, 21.04. 14:20 0
So, 21.04. 14:10 0
So, 21.04. 14:00 0
So, 21.04. 13:30 0
So, 21.04. 13:00 0
So, 21.04. 12:30 0
So, 21.04. 12:00 0
Link zu dieser Seite / Seite empfehlen

Das Wetter in ...